sensor_id;sensor_type;location;lat;lon;timestamp;P1;durP1;ratioP1;P2;durP2;ratioP2
37131;SDS011;23035;50.032;21.978;2024-01-10T00:03:47;508.67;;;159.65;;
37131;SDS011;23035;50.032;21.978;2024-01-10T00:08:55;490.05;;;162.13;;
37131;SDS011;23035;50.032;21.978;2024-01-10T00:14:04;527.83;;;174.80;;
37131;SDS011;23035;50.032;21.978;2024-01-10T00:19:13;536.92;;;176.23;;
37131;SDS011;23035;50.032;21.978;2024-01-10T00:24:21;549.88;;;187.40;;
37131;SDS011;23035;50.032;21.978;2024-01-10T00:29:29;570.88;;;192.50;;
37131;SDS011;23035;50.032;21.978;2024-01-10T00:34:38;605.08;;;216.10;;
37131;SDS011;23035;50.032;21.978;2024-01-10T00:39:46;539.00;;;181.02;;
37131;SDS011;23035;50.032;21.978;2024-01-10T00:44:52;517.20;;;178.95;;
37131;SDS011;23035;50.032;21.978;2024-01-10T00:50:02;527.58;;;175.32;;
37131;SDS011;23035;50.032;21.978;2024-01-10T00:55:10;547.67;;;181.45;;
37131;SDS011;23035;50.032;21.978;2024-01-10T01:00:18;550.45;;;184.07;;
37131;SDS011;23035;50.032;21.978;2024-01-10T01:05:28;548.78;;;186.55;;
37131;SDS011;23035;50.032;21.978;2024-01-10T01:10:35;564.40;;;194.32;;
37131;SDS011;23035;50.032;21.978;2024-01-10T01:15:44;554.47;;;185.00;;
37131;SDS011;23035;50.032;21.978;2024-01-10T01:20:53;549.65;;;178.68;;
37131;SDS011;23035;50.032;21.978;2024-01-10T01:26:01;542.80;;;177.63;;
37131;SDS011;23035;50.032;21.978;2024-01-10T01:31:08;535.50;;;176.20;;
37131;SDS011;23035;50.032;21.978;2024-01-10T01:36:17;520.05;;;171.45;;
37131;SDS011;23035;50.032;21.978;2024-01-10T01:41:26;467.50;;;147.57;;
37131;SDS011;23035;50.032;21.978;2024-01-10T01:46:33;466.95;;;145.93;;
37131;SDS011;23035;50.032;21.978;2024-01-10T01:51:43;446.60;;;138.82;;
37131;SDS011;23035;50.032;21.978;2024-01-10T01:56:52;441.98;;;134.18;;
37131;SDS011;23035;50.032;21.978;2024-01-10T02:02:00;409.52;;;127.10;;
37131;SDS011;23035;50.032;21.978;2024-01-10T02:07:13;388.38;;;120.28;;
37131;SDS011;23035;50.032;21.978;2024-01-10T02:12:21;387.98;;;122.15;;
37131;SDS011;23035;50.032;21.978;2024-01-10T02:17:28;387.52;;;123.70;;
37131;SDS011;23035;50.032;21.978;2024-01-10T02:22:36;413.90;;;124.13;;
37131;SDS011;23035;50.032;21.978;2024-01-10T02:27:46;417.02;;;126.55;;
37131;SDS011;23035;50.032;21.978;2024-01-10T02:32:54;366.17;;;119.85;;
37131;SDS011;23035;50.032;21.978;2024-01-10T02:38:02;351.60;;;116.03;;
37131;SDS011;23035;50.032;21.978;2024-01-10T02:43:12;361.75;;;113.30;;
37131;SDS011;23035;50.032;21.978;2024-01-10T02:48:20;340.88;;;107.63;;
37131;SDS011;23035;50.032;21.978;2024-01-10T02:53:27;347.52;;;106.32;;
37131;SDS011;23035;50.032;21.978;2024-01-10T02:58:34;353.05;;;111.35;;
37131;SDS011;23035;50.032;21.978;2024-01-10T03:03:39;373.42;;;116.50;;
37131;SDS011;23035;50.032;21.978;2024-01-10T03:08:43;367.63;;;115.22;;
37131;SDS011;23035;50.032;21.978;2024-01-10T03:13:49;339.42;;;108.35;;
37131;SDS011;23035;50.032;21.978;2024-01-10T03:18:56;321.67;;;102.40;;
37131;SDS011;23035;50.032;21.978;2024-01-10T03:24:00;330.35;;;104.47;;
37131;SDS011;23035;50.032;21.978;2024-01-10T03:29:07;338.20;;;99.40;;
37131;SDS011;23035;50.032;21.978;2024-01-10T03:34:11;314.13;;;101.55;;
37131;SDS011;23035;50.032;21.978;2024-01-10T03:39:15;334.00;;;102.45;;
37131;SDS011;23035;50.032;21.978;2024-01-10T03:44:21;340.17;;;108.80;;
37131;SDS011;23035;50.032;21.978;2024-01-10T03:49:25;314.38;;;103.93;;
37131;SDS011;23035;50.032;21.978;2024-01-10T03:54:30;329.92;;;109.43;;
37131;SDS011;23035;50.032;21.978;2024-01-10T03:59:35;341.55;;;105.78;;
37131;SDS011;23035;50.032;21.978;2024-01-10T04:04:39;342.08;;;106.82;;
37131;SDS011;23035;50.032;21.978;2024-01-10T04:09:44;350.02;;;109.38;;
37131;SDS011;23035;50.032;21.978;2024-01-10T04:14:49;337.83;;;106.97;;
37131;SDS011;23035;50.032;21.978;2024-01-10T04:19:53;322.23;;;106.75;;
37131;SDS011;23035;50.032;21.978;2024-01-10T04:24:59;341.15;;;114.88;;
37131;SDS011;23035;50.032;21.978;2024-01-10T04:30:07;346.98;;;111.80;;
37131;SDS011;23035;50.032;21.978;2024-01-10T04:35:12;334.00;;;109.70;;
37131;SDS011;23035;50.032;21.978;2024-01-10T04:40:16;302.08;;;104.28;;
37131;SDS011;23035;50.032;21.978;2024-01-10T04:45:23;315.65;;;104.53;;
37131;SDS011;23035;50.032;21.978;2024-01-10T04:50:27;303.80;;;102.05;;
37131;SDS011;23035;50.032;21.978;2024-01-10T04:55:31;347.02;;;112.80;;
37131;SDS011;23035;50.032;21.978;2024-01-10T05:00:37;318.93;;;104.70;;
37131;SDS011;23035;50.032;21.978;2024-01-10T05:05:41;308.67;;;101.25;;
37131;SDS011;23035;50.032;21.978;2024-01-10T05:10:47;308.40;;;105.18;;
37131;SDS011;23035;50.032;21.978;2024-01-10T05:15:52;302.83;;;101.80;;
37131;SDS011;23035;50.032;21.978;2024-01-10T05:20:57;306.17;;;101.13;;
37131;SDS011;23035;50.032;21.978;2024-01-10T05:31:08;286.33;;;99.38;;
37131;SDS011;23035;50.032;21.978;2024-01-10T05:36:12;310.00;;;102.28;;
37131;SDS011;23035;50.032;21.978;2024-01-10T05:41:17;304.47;;;101.87;;
37131;SDS011;23035;50.032;21.978;2024-01-10T05:46:22;292.17;;;99.93;;
37131;SDS011;23035;50.032;21.978;2024-01-10T05:51:26;299.48;;;97.70;;
37131;SDS011;23035;50.032;21.978;2024-01-10T06:01:37;312.38;;;104.68;;
37131;SDS011;23035;50.032;21.978;2024-01-10T06:06:42;325.38;;;104.82;;
37131;SDS011;23035;50.032;21.978;2024-01-10T06:11:47;331.08;;;102.78;;
37131;SDS011;23035;50.032;21.978;2024-01-10T06:16:53;319.77;;;104.50;;
37131;SDS011;23035;50.032;21.978;2024-01-10T06:21:58;353.17;;;109.40;;
37131;SDS011;23035;50.032;21.978;2024-01-10T06:27:02;357.33;;;118.90;;
37131;SDS011;23035;50.032;21.978;2024-01-10T06:32:08;352.90;;;124.93;;
37131;SDS011;23035;50.032;21.978;2024-01-10T06:37:13;387.30;;;121.80;;
37131;SDS011;23035;50.032;21.978;2024-01-10T06:42:17;383.43;;;124.67;;
37131;SDS011;23035;50.032;21.978;2024-01-10T06:47:22;423.90;;;128.80;;
37131;SDS011;23035;50.032;21.978;2024-01-10T06:52:27;403.50;;;131.27;;
37131;SDS011;23035;50.032;21.978;2024-01-10T06:57:31;366.48;;;119.38;;
37131;SDS011;23035;50.032;21.978;2024-01-10T07:02:36;353.52;;;115.88;;
37131;SDS011;23035;50.032;21.978;2024-01-10T07:07:41;384.80;;;123.57;;
37131;SDS011;23035;50.032;21.978;2024-01-10T07:12:46;368.77;;;123.47;;
37131;SDS011;23035;50.032;21.978;2024-01-10T07:17:51;417.73;;;136.27;;
37131;SDS011;23035;50.032;21.978;2024-01-10T07:22:55;425.80;;;142.60;;
37131;SDS011;23035;50.032;21.978;2024-01-10T07:28:00;434.53;;;146.70;;
37131;SDS011;23035;50.032;21.978;2024-01-10T07:33:05;439.73;;;154.73;;
37131;SDS011;23035;50.032;21.978;2024-01-10T07:38:10;466.50;;;164.52;;
37131;SDS011;23035;50.032;21.978;2024-01-10T07:43:17;467.42;;;160.02;;
37131;SDS011;23035;50.032;21.978;2024-01-10T07:48:23;465.27;;;163.63;;
37131;SDS011;23035;50.032;21.978;2024-01-10T07:53:28;452.60;;;154.00;;
37131;SDS011;23035;50.032;21.978;2024-01-10T07:58:33;431.15;;;152.45;;
37131;SDS011;23035;50.032;21.978;2024-01-10T08:03:38;423.77;;;148.47;;
37131;SDS011;23035;50.032;21.978;2024-01-10T08:08:43;371.73;;;128.55;;
37131;SDS011;23035;50.032;21.978;2024-01-10T08:13:47;400.27;;;133.67;;
37131;SDS011;23035;50.032;21.978;2024-01-10T08:18:53;375.67;;;130.40;;
37131;SDS011;23035;50.032;21.978;2024-01-10T08:23:57;355.40;;;123.50;;
37131;SDS011;23035;50.032;21.978;2024-01-10T08:29:01;352.10;;;122.20;;
37131;SDS011;23035;50.032;21.978;2024-01-10T08:34:06;347.02;;;123.13;;
37131;SDS011;23035;50.032;21.978;2024-01-10T08:39:11;341.50;;;116.25;;
37131;SDS011;23035;50.032;21.978;2024-01-10T08:44:15;327.15;;;120.25;;
37131;SDS011;23035;50.032;21.978;2024-01-10T08:49:20;315.77;;;115.22;;
37131;SDS011;23035;50.032;21.978;2024-01-10T08:54:25;305.05;;;105.82;;
37131;SDS011;23035;50.032;21.978;2024-01-10T08:59:29;283.85;;;103.63;;
37131;SDS011;23035;50.032;21.978;2024-01-10T09:04:35;266.20;;;100.07;;
37131;SDS011;23035;50.032;21.978;2024-01-10T09:09:40;248.43;;;88.38;;
37131;SDS011;23035;50.032;21.978;2024-01-10T09:14:44;258.27;;;95.50;;
37131;SDS011;23035;50.032;21.978;2024-01-10T09:19:50;244.20;;;87.10;;
37131;SDS011;23035;50.032;21.978;2024-01-10T09:24:54;218.48;;;81.00;;
37131;SDS011;23035;50.032;21.978;2024-01-10T09:30:02;247.85;;;88.18;;
37131;SDS011;23035;50.032;21.978;2024-01-10T09:35:12;181.05;;;68.70;;
37131;SDS011;23035;50.032;21.978;2024-01-10T09:40:17;232.02;;;85.97;;
37131;SDS011;23035;50.032;21.978;2024-01-10T09:45:23;231.23;;;87.10;;
37131;SDS011;23035;50.032;21.978;2024-01-10T09:50:31;194.57;;;75.50;;
37131;SDS011;23035;50.032;21.978;2024-01-10T09:55:36;227.05;;;85.03;;
37131;SDS011;23035;50.032;21.978;2024-01-10T10:00:42;252.52;;;92.65;;
37131;SDS011;23035;50.032;21.978;2024-01-10T10:05:49;246.88;;;91.00;;
37131;SDS011;23035;50.032;21.978;2024-01-10T10:10:53;248.70;;;92.65;;
37131;SDS011;23035;50.032;21.978;2024-01-10T10:15:58;247.80;;;90.07;;
37131;SDS011;23035;50.032;21.978;2024-01-10T10:21:08;234.73;;;88.50;;
37131;SDS011;23035;50.032;21.978;2024-01-10T10:26:14;227.80;;;92.88;;
37131;SDS011;23035;50.032;21.978;2024-01-10T10:31:24;228.95;;;91.05;;
37131;SDS011;23035;50.032;21.978;2024-01-10T10:36:31;230.07;;;89.13;;
37131;SDS011;23035;50.032;21.978;2024-01-10T10:41:35;216.57;;;80.03;;
37131;SDS011;23035;50.032;21.978;2024-01-10T10:46:41;221.23;;;82.35;;
37131;SDS011;23035;50.032;21.978;2024-01-10T10:51:52;211.32;;;84.70;;
37131;SDS011;23035;50.032;21.978;2024-01-10T10:56:59;217.18;;;81.63;;
37131;SDS011;23035;50.032;21.978;2024-01-10T11:02:06;208.10;;;82.13;;
37131;SDS011;23035;50.032;21.978;2024-01-10T11:07:15;210.65;;;79.75;;
37131;SDS011;23035;50.032;21.978;2024-01-10T11:12:23;181.38;;;73.90;;
37131;SDS011;23035;50.032;21.978;2024-01-10T11:17:40;179.30;;;71.47;;
37131;SDS011;23035;50.032;21.978;2024-01-10T11:23:09;185.50;;;69.38;;
37131;SDS011;23035;50.032;21.978;2024-01-10T11:28:32;200.02;;;75.28;;
37131;SDS011;23035;50.032;21.978;2024-01-10T11:33:46;179.32;;;72.00;;
37131;SDS011;23035;50.032;21.978;2024-01-10T11:38:57;168.35;;;64.70;;
37131;SDS011;23035;50.032;21.978;2024-01-10T11:49:30;171.88;;;67.05;;
37131;SDS011;23035;50.032;21.978;2024-01-10T11:54:40;169.32;;;65.32;;
37131;SDS011;23035;50.032;21.978;2024-01-10T11:59:50;153.65;;;56.55;;
37131;SDS011;23035;50.032;21.978;2024-01-10T12:04:55;168.95;;;63.30;;
37131;SDS011;23035;50.032;21.978;2024-01-10T12:10:01;167.65;;;65.07;;
37131;SDS011;23035;50.032;21.978;2024-01-10T12:15:07;165.93;;;63.78;;
37131;SDS011;23035;50.032;21.978;2024-01-10T12:20:14;173.55;;;69.47;;
37131;SDS011;23035;50.032;21.978;2024-01-10T12:25:20;184.70;;;73.33;;
37131;SDS011;23035;50.032;21.978;2024-01-10T12:30:25;174.02;;;68.60;;
37131;SDS011;23035;50.032;21.978;2024-01-10T12:35:29;192.45;;;81.50;;
37131;SDS011;23035;50.032;21.978;2024-01-10T12:40:35;182.97;;;76.50;;
37131;SDS011;23035;50.032;21.978;2024-01-10T12:50:45;216.93;;;89.05;;
37131;SDS011;23035;50.032;21.978;2024-01-10T12:55:51;220.05;;;90.70;;
37131;SDS011;23035;50.032;21.978;2024-01-10T13:05:59;221.48;;;89.22;;
37131;SDS011;23035;50.032;21.978;2024-01-10T13:11:05;226.95;;;89.20;;
37131;SDS011;23035;50.032;21.978;2024-01-10T13:16:13;220.07;;;89.15;;
37131;SDS011;23035;50.032;21.978;2024-01-10T13:21:18;224.43;;;89.72;;
37131;SDS011;23035;50.032;21.978;2024-01-10T13:26:24;220.15;;;91.18;;
37131;SDS011;23035;50.032;21.978;2024-01-10T13:31:28;206.68;;;88.53;;
37131;SDS011;23035;50.032;21.978;2024-01-10T13:36:33;204.88;;;86.00;;
37131;SDS011;23035;50.032;21.978;2024-01-10T13:41:39;196.32;;;85.43;;
37131;SDS011;23035;50.032;21.978;2024-01-10T13:51:47;197.40;;;83.32;;
37131;SDS011;23035;50.032;21.978;2024-01-10T13:56:53;211.82;;;89.63;;
37131;SDS011;23035;50.032;21.978;2024-01-10T14:02:02;202.65;;;85.85;;
37131;SDS011;23035;50.032;21.978;2024-01-10T14:07:08;202.40;;;87.82;;
37131;SDS011;23035;50.032;21.978;2024-01-10T14:12:14;210.05;;;92.25;;
37131;SDS011;23035;50.032;21.978;2024-01-10T14:22:22;211.65;;;91.05;;
37131;SDS011;23035;50.032;21.978;2024-01-10T14:27:35;207.68;;;90.60;;
37131;SDS011;23035;50.032;21.978;2024-01-10T14:32:41;216.43;;;92.57;;
37131;SDS011;23035;50.032;21.978;2024-01-10T14:37:46;217.23;;;91.93;;
37131;SDS011;23035;50.032;21.978;2024-01-10T14:42:51;217.95;;;93.63;;
37131;SDS011;23035;50.032;21.978;2024-01-10T14:47:55;210.38;;;91.72;;
37131;SDS011;23035;50.032;21.978;2024-01-10T14:53:00;224.52;;;91.95;;
37131;SDS011;23035;50.032;21.978;2024-01-10T14:58:07;221.65;;;93.32;;
37131;SDS011;23035;50.032;21.978;2024-01-10T15:03:13;233.65;;;93.32;;
37131;SDS011;23035;50.032;21.978;2024-01-10T15:08:28;294.75;;;119.20;;
37131;SDS011;23035;50.032;21.978;2024-01-10T15:13:34;334.42;;;128.93;;
37131;SDS011;23035;50.032;21.978;2024-01-10T15:18:38;314.52;;;115.70;;
37131;SDS011;23035;50.032;21.978;2024-01-10T15:23:42;410.17;;;159.18;;
37131;SDS011;23035;50.032;21.978;2024-01-10T15:28:48;349.50;;;133.68;;
37131;SDS011;23035;50.032;21.978;2024-01-10T15:33:53;300.38;;;116.78;;
37131;SDS011;23035;50.032;21.978;2024-01-10T15:38:58;265.35;;;103.15;;
37131;SDS011;23035;50.032;21.978;2024-01-10T15:44:06;295.25;;;118.82;;
37131;SDS011;23035;50.032;21.978;2024-01-10T15:49:12;318.77;;;124.80;;
37131;SDS011;23035;50.032;21.978;2024-01-10T15:54:19;369.77;;;140.18;;
37131;SDS011;23035;50.032;21.978;2024-01-10T15:59:27;322.83;;;119.70;;
37131;SDS011;23035;50.032;21.978;2024-01-10T16:04:32;342.77;;;133.00;;
37131;SDS011;23035;50.032;21.978;2024-01-10T16:09:36;356.58;;;136.75;;
37131;SDS011;23035;50.032;21.978;2024-01-10T16:19:50;374.02;;;137.07;;
37131;SDS011;23035;50.032;21.978;2024-01-10T16:24:55;436.38;;;158.23;;
37131;SDS011;23035;50.032;21.978;2024-01-10T16:30:01;455.83;;;179.48;;
37131;SDS011;23035;50.032;21.978;2024-01-10T16:35:06;459.67;;;182.48;;
37131;SDS011;23035;50.032;21.978;2024-01-10T16:40:13;387.00;;;148.55;;
37131;SDS011;23035;50.032;21.978;2024-01-10T16:45:21;354.35;;;135.43;;
37131;SDS011;23035;50.032;21.978;2024-01-10T16:55:33;334.40;;;124.28;;
37131;SDS011;23035;50.032;21.978;2024-01-10T17:00:39;366.07;;;136.17;;
37131;SDS011;23035;50.032;21.978;2024-01-10T17:05:44;338.75;;;130.13;;
37131;SDS011;23035;50.032;21.978;2024-01-10T17:10:48;356.60;;;134.90;;
37131;SDS011;23035;50.032;21.978;2024-01-10T17:15:55;369.27;;;145.50;;
37131;SDS011;23035;50.032;21.978;2024-01-10T17:20:59;341.75;;;130.48;;
37131;SDS011;23035;50.032;21.978;2024-01-10T17:26:03;376.30;;;142.90;;
37131;SDS011;23035;50.032;21.978;2024-01-10T17:31:09;399.77;;;147.40;;
37131;SDS011;23035;50.032;21.978;2024-01-10T17:36:15;373.88;;;141.43;;
37131;SDS011;23035;50.032;21.978;2024-01-10T17:41:19;367.38;;;140.43;;
37131;SDS011;23035;50.032;21.978;2024-01-10T17:46:25;353.03;;;131.63;;
37131;SDS011;23035;50.032;21.978;2024-01-10T17:51:30;396.75;;;146.80;;
37131;SDS011;23035;50.032;21.978;2024-01-10T17:56:34;443.95;;;169.93;;
37131;SDS011;23035;50.032;21.978;2024-01-10T18:01:42;408.02;;;154.27;;
37131;SDS011;23035;50.032;21.978;2024-01-10T18:06:46;400.15;;;148.65;;
37131;SDS011;23035;50.032;21.978;2024-01-10T18:11:51;429.70;;;156.95;;
37131;SDS011;23035;50.032;21.978;2024-01-10T18:16:57;441.55;;;167.98;;
37131;SDS011;23035;50.032;21.978;2024-01-10T18:22:01;425.60;;;160.38;;
37131;SDS011;23035;50.032;21.978;2024-01-10T18:27:06;461.42;;;178.48;;
37131;SDS011;23035;50.032;21.978;2024-01-10T18:32:12;465.58;;;178.85;;
37131;SDS011;23035;50.032;21.978;2024-01-10T18:37:16;451.73;;;170.77;;
37131;SDS011;23035;50.032;21.978;2024-01-10T18:42:21;478.70;;;183.02;;
37131;SDS011;23035;50.032;21.978;2024-01-10T18:47:27;491.55;;;194.80;;
37131;SDS011;23035;50.032;21.978;2024-01-10T18:52:33;490.25;;;180.18;;
37131;SDS011;23035;50.032;21.978;2024-01-10T18:57:38;509.67;;;201.30;;
37131;SDS011;23035;50.032;21.978;2024-01-10T19:02:45;531.03;;;213.65;;
37131;SDS011;23035;50.032;21.978;2024-01-10T19:07:50;530.25;;;207.88;;
37131;SDS011;23035;50.032;21.978;2024-01-10T19:12:57;541.45;;;210.48;;
37131;SDS011;23035;50.032;21.978;2024-01-10T19:18:03;528.15;;;206.98;;
37131;SDS011;23035;50.032;21.978;2024-01-10T19:23:08;530.40;;;210.23;;
37131;SDS011;23035;50.032;21.978;2024-01-10T19:28:13;503.42;;;195.52;;
37131;SDS011;23035;50.032;21.978;2024-01-10T19:33:19;474.35;;;184.10;;
37131;SDS011;23035;50.032;21.978;2024-01-10T19:38:23;458.73;;;167.95;;
37131;SDS011;23035;50.032;21.978;2024-01-10T19:43:28;438.52;;;165.73;;
37131;SDS011;23035;50.032;21.978;2024-01-10T19:53:39;433.58;;;158.88;;
37131;SDS011;23035;50.032;21.978;2024-01-10T19:58:45;418.15;;;154.60;;
37131;SDS011;23035;50.032;21.978;2024-01-10T20:03:51;417.98;;;155.20;;
37131;SDS011;23035;50.032;21.978;2024-01-10T20:08:55;425.67;;;154.23;;
37131;SDS011;23035;50.032;21.978;2024-01-10T20:14:00;435.00;;;157.77;;
37131;SDS011;23035;50.032;21.978;2024-01-10T20:19:05;460.75;;;169.15;;
37131;SDS011;23035;50.032;21.978;2024-01-10T20:24:10;450.50;;;165.43;;
37131;SDS011;23035;50.032;21.978;2024-01-10T20:29:14;416.70;;;156.30;;
37131;SDS011;23035;50.032;21.978;2024-01-10T20:34:20;424.80;;;156.40;;
37131;SDS011;23035;50.032;21.978;2024-01-10T20:39:25;422.33;;;156.80;;
37131;SDS011;23035;50.032;21.978;2024-01-10T20:44:30;424.33;;;153.63;;
37131;SDS011;23035;50.032;21.978;2024-01-10T20:49:35;399.33;;;144.20;;
37131;SDS011;23035;50.032;21.978;2024-01-10T20:54:40;429.35;;;158.27;;
37131;SDS011;23035;50.032;21.978;2024-01-10T20:59:44;453.65;;;167.18;;
37131;SDS011;23035;50.032;21.978;2024-01-10T21:04:49;469.25;;;175.35;;
37131;SDS011;23035;50.032;21.978;2024-01-10T21:09:54;476.83;;;175.90;;
37131;SDS011;23035;50.032;21.978;2024-01-10T21:14:58;475.10;;;180.02;;
37131;SDS011;23035;50.032;21.978;2024-01-10T21:25:11;474.48;;;170.43;;
37131;SDS011;23035;50.032;21.978;2024-01-10T21:30:16;481.80;;;173.30;;
37131;SDS011;23035;50.032;21.978;2024-01-10T21:35:21;466.13;;;175.00;;
37131;SDS011;23035;50.032;21.978;2024-01-10T21:40:26;463.67;;;167.02;;
37131;SDS011;23035;50.032;21.978;2024-01-10T21:45:30;475.83;;;174.95;;
37131;SDS011;23035;50.032;21.978;2024-01-10T21:50:36;479.30;;;173.00;;
37131;SDS011;23035;50.032;21.978;2024-01-10T21:55:41;450.60;;;161.23;;
37131;SDS011;23035;50.032;21.978;2024-01-10T22:01:07;442.00;;;160.13;;
37131;SDS011;23035;50.032;21.978;2024-01-10T22:06:13;435.35;;;157.93;;
37131;SDS011;23035;50.032;21.978;2024-01-10T22:11:17;435.25;;;153.18;;
37131;SDS011;23035;50.032;21.978;2024-01-10T22:16:22;434.88;;;159.25;;
37131;SDS011;23035;50.032;21.978;2024-01-10T22:21:27;429.63;;;155.50;;
37131;SDS011;23035;50.032;21.978;2024-01-10T22:26:32;406.95;;;148.90;;
37131;SDS011;23035;50.032;21.978;2024-01-10T22:31:36;395.77;;;145.57;;
37131;SDS011;23035;50.032;21.978;2024-01-10T22:36:42;417.50;;;146.48;;
37131;SDS011;23035;50.032;21.978;2024-01-10T22:41:46;404.75;;;144.52;;
37131;SDS011;23035;50.032;21.978;2024-01-10T22:46:51;400.97;;;139.97;;
37131;SDS011;23035;50.032;21.978;2024-01-10T22:51:57;406.20;;;142.23;;
37131;SDS011;23035;50.032;21.978;2024-01-10T22:57:01;391.50;;;135.10;;
37131;SDS011;23035;50.032;21.978;2024-01-10T23:02:06;372.15;;;131.77;;
37131;SDS011;23035;50.032;21.978;2024-01-10T23:07:11;334.25;;;116.22;;
37131;SDS011;23035;50.032;21.978;2024-01-10T23:12:16;324.65;;;115.82;;
37131;SDS011;23035;50.032;21.978;2024-01-10T23:17:20;339.33;;;119.70;;
37131;SDS011;23035;50.032;21.978;2024-01-10T23:22:26;326.03;;;113.20;;
37131;SDS011;23035;50.032;21.978;2024-01-10T23:27:31;304.73;;;112.80;;
37131;SDS011;23035;50.032;21.978;2024-01-10T23:32:35;317.05;;;113.88;;
37131;SDS011;23035;50.032;21.978;2024-01-10T23:37:41;324.70;;;109.78;;
37131;SDS011;23035;50.032;21.978;2024-01-10T23:42:45;338.50;;;118.63;;
37131;SDS011;23035;50.032;21.978;2024-01-10T23:47:50;350.87;;;123.33;;
37131;SDS011;23035;50.032;21.978;2024-01-10T23:52:59;328.35;;;116.05;;
37131;SDS011;23035;50.032;21.978;2024-01-10T23:58:03;279.52;;;96.60;;
